ENSH/SVJ METAR and TAF weather

Enter ICAO airport designator
Station Type Date Time Source
ENSH METAR 2018/01/17 05:50 UTC NOAA

ENSH 170550Z 10018KT CAVOK 01/M07 Q0990 RMK WIND 150FT 08018KT


Station Type Date Time Source
ENSH Decoded METAR 2018/01/17 05:50 UTC NOAA

Svolvaer / Helle, Norway (ENSH) 68-15N 014-40E 9M
Jan 17, 2018 - 12:50 AM EST / 2018.01.17 0550 UTC
Wind: from the E (100 degrees) at 21 MPH (18 KT):0
Visibility: greater than 7 mile(s):0
Temperature: 33 F (1 C)
Windchill: 21 F (-6 C):1
Dew Point: 19 F (-7 C)
Relative Humidity: 55%
Pressure (altimeter): 29.23 in. Hg (0990 hPa)
ob: ENSH 170550Z 10018KT CAVOK 01/M07 Q0990 RMK WIND 150FT 08018KT
cycle: 6

Station Type Date Time Source
ENSH TAF UTC NOAA

Error!


Example: see airport list